createdAt,value
2018-09-27T00:01:54.663Z,65.40
2018-09-27T00:04:22.468Z,64.44
2018-09-27T00:06:50.298Z,65.07
2018-09-27T00:09:18.037Z,64.74
2018-09-27T00:11:45.786Z,64.29
2018-09-27T00:14:13.587Z,65.15
2018-09-27T00:16:41.432Z,65.37
2018-09-27T00:19:09.570Z,64.91
2018-09-27T00:21:37.301Z,65.56
2018-09-27T00:24:05.159Z,65.26
2018-09-27T00:26:32.902Z,66.83
2018-09-27T00:29:00.671Z,65.94
2018-09-27T00:31:28.423Z,66.00
2018-09-27T00:33:56.240Z,65.90
2018-09-27T00:36:23.998Z,65.79
2018-09-27T00:38:51.744Z,67.68
2018-09-27T00:41:19.491Z,66.53
2018-09-27T00:43:47.375Z,66.47
2018-09-27T00:46:15.130Z,66.73
2018-09-27T00:48:42.874Z,66.62
2018-09-27T00:51:10.626Z,69.64
2018-09-27T00:53:38.403Z,68.37
2018-09-27T00:56:06.107Z,67.52
2018-09-27T00:58:33.958Z,67.13
2018-09-27T01:01:01.753Z,67.58
2018-09-27T01:03:29.546Z,67.89
2018-09-27T01:05:57.358Z,67.78
2018-09-27T01:08:25.099Z,67.98
2018-09-27T01:10:52.939Z,68.95
2018-09-27T01:13:20.818Z,68.69
2018-09-27T01:15:48.927Z,68.42
2018-09-27T01:18:16.763Z,70.65
2018-09-27T01:20:44.584Z,69.11
2018-09-27T01:23:12.348Z,69.56
2018-09-27T01:25:40.083Z,68.86
2018-09-27T01:28:07.854Z,69.09
2018-09-27T01:30:35.618Z,69.98
2018-09-27T01:33:03.403Z,71.19
2018-09-27T01:35:31.182Z,70.27
2018-09-27T01:37:58.969Z,70.92
2018-09-27T01:40:26.686Z,70.84
2018-09-27T01:42:54.421Z,70.88
2018-09-27T01:45:22.130Z,70.76
2018-09-27T01:47:49.975Z,70.88
2018-09-27T01:50:17.756Z,70.46
2018-09-27T01:52:45.434Z,70.53
2018-09-27T01:55:13.174Z,71.26
2018-09-27T01:57:40.919Z,71.32
2018-09-27T02:00:08.802Z,71.19
2018-09-27T02:02:36.511Z,71.19
2018-09-27T02:05:04.442Z,70.86
2018-09-27T02:07:32.258Z,71.03
2018-09-27T02:10:00.078Z,71.07
2018-09-27T02:12:27.947Z,71.74
2018-09-27T02:14:55.699Z,71.60
2018-09-27T02:17:23.399Z,70.99
2018-09-27T02:19:51.213Z,70.99
2018-09-27T02:22:18.949Z,70.89
2018-09-27T02:24:46.699Z,71.03
2018-09-27T02:27:14.494Z,71.03
2018-09-27T02:29:42.213Z,71.10
2018-09-27T02:32:10.004Z,71.11
2018-09-27T02:34:37.778Z,71.36
2018-09-27T02:37:05.583Z,70.93
2018-09-27T02:39:33.386Z,71.61
2018-09-27T02:42:01.171Z,70.95
2018-09-27T02:44:28.888Z,73.11
2018-09-27T02:46:56.698Z,71.55
2018-09-27T02:49:24.528Z,71.44
2018-09-27T02:51:52.274Z,71.07
2018-09-27T02:54:20.052Z,71.58
2018-09-27T02:56:47.834Z,71.31
2018-09-27T02:59:15.609Z,71.37
2018-09-27T03:01:43.489Z,71.33
2018-09-27T03:04:11.324Z,71.05
2018-09-27T03:06:39.031Z,71.11
2018-09-27T03:09:08.826Z,72.24
2018-09-27T03:11:36.634Z,72.14
2018-09-27T03:14:04.398Z,72.85
2018-09-27T03:16:32.106Z,72.36
2018-09-27T03:18:59.931Z,73.76
2018-09-27T03:21:27.756Z,73.28
2018-09-27T03:23:55.512Z,72.99
2018-09-27T03:26:23.266Z,72.90
2018-09-27T03:28:50.966Z,73.73
2018-09-27T03:31:18.912Z,73.32
2018-09-27T03:38:53.403Z,73.19
2018-09-27T03:41:21.159Z,74.10
2018-09-27T03:43:48.855Z,74.03
2018-09-27T03:46:16.693Z,73.91
2018-09-27T03:48:44.610Z,73.59
2018-09-27T03:53:49.780Z,73.98
2018-09-27T03:56:17.499Z,73.79
2018-09-27T03:58:45.249Z,73.83
2018-09-27T04:01:13.132Z,73.97
2018-09-27T04:03:40.956Z,74.33
2018-09-27T04:06:08.744Z,74.83
2018-09-27T04:08:36.589Z,74.35
2018-09-27T04:11:04.352Z,74.59
2018-09-27T04:13:32.088Z,74.26
2018-09-27T04:15:59.904Z,74.18
2018-09-27T04:18:27.696Z,73.79
2018-09-27T04:20:55.519Z,73.49
2018-09-27T04:23:23.902Z,73.21
2018-09-27T04:25:52.194Z,72.59
2018-09-27T04:28:20.731Z,71.62
2018-09-27T04:30:48.646Z,71.50
2018-09-27T04:33:16.442Z,71.20
2018-09-27T04:35:44.281Z,70.71
2018-09-27T04:38:12.115Z,71.01
2018-09-27T04:40:39.895Z,70.07
2018-09-27T04:43:07.642Z,74.71
2018-09-27T04:45:35.461Z,69.92
2018-09-27T04:48:03.288Z,65.77
2018-09-27T04:50:31.034Z,58.76
2018-09-27T04:52:58.827Z,58.91
2018-09-27T04:55:26.591Z,58.39
2018-09-27T04:57:54.387Z,53.57
2018-09-27T05:00:22.165Z,48.80
2018-09-27T05:02:50.030Z,45.49
2018-09-27T05:05:17.755Z,43.31
2018-09-27T05:07:45.502Z,42.50
2018-09-27T05:10:13.323Z,41.88
2018-09-27T05:12:41.036Z,40.61
2018-09-27T05:15:08.806Z,40.07
2018-09-27T05:17:36.586Z,38.95
2018-09-27T05:20:04.439Z,37.76
2018-09-27T05:22:32.305Z,36.64
2018-09-27T05:25:00.111Z,35.84
2018-09-27T05:27:27.839Z,34.39
2018-09-27T05:29:55.678Z,35.96
2018-09-27T05:32:23.458Z,35.88
2018-09-27T05:34:51.178Z,36.42
2018-09-27T05:37:19.011Z,36.59
2018-09-27T05:39:46.740Z,36.71
2018-09-27T05:42:14.499Z,38.85
2018-09-27T05:44:42.285Z,37.67
2018-09-27T05:47:09.998Z,37.89
2018-09-27T05:49:37.718Z,38.42
2018-09-27T05:52:05.550Z,41.79
2018-09-27T05:54:33.328Z,40.96
2018-09-27T05:57:01.158Z,41.70
2018-09-27T05:59:28.921Z,42.17
2018-09-27T06:01:56.678Z,42.25
2018-09-27T06:04:24.622Z,42.79
2018-09-27T06:06:52.347Z,42.91
2018-09-27T06:09:20.076Z,43.44
2018-09-27T06:11:47.818Z,45.79
2018-09-27T06:14:15.655Z,46.20
2018-09-27T06:16:43.370Z,46.42
2018-09-27T06:19:11.105Z,45.69
2018-09-27T06:21:39.032Z,45.96
2018-09-27T06:24:06.998Z,46.05
2018-09-27T06:26:34.732Z,47.03
2018-09-27T06:29:02.584Z,48.13
2018-09-27T06:31:30.294Z,49.11
2018-09-27T06:33:58.218Z,48.20
2018-09-27T06:36:26.120Z,47.82
2018-09-27T06:38:53.790Z,47.74
2018-09-27T06:41:21.652Z,47.15
2018-09-27T06:43:49.415Z,46.85
2018-09-27T06:46:17.215Z,46.97
2018-09-27T06:48:45.156Z,45.64
2018-09-27T06:51:12.962Z,44.21
2018-09-27T06:53:40.846Z,43.92
2018-09-27T06:56:08.688Z,43.93
2018-09-27T06:58:36.425Z,43.79
2018-09-27T07:01:04.223Z,43.45
2018-09-27T07:03:31.943Z,42.91
2018-09-27T07:06:00.064Z,43.73
2018-09-27T07:08:27.900Z,43.47
2018-09-27T07:10:55.638Z,43.12
2018-09-27T07:13:23.447Z,41.98
2018-09-27T07:15:51.250Z,41.74
2018-09-27T07:18:22.702Z,42.36
2018-09-27T07:20:50.610Z,43.87
2018-09-27T07:23:18.415Z,45.63
2018-09-27T07:25:46.128Z,45.97
2018-09-27T07:28:13.906Z,46.10
2018-09-27T07:30:41.706Z,47.02
2018-09-27T07:33:09.513Z,47.16
2018-09-27T07:35:37.305Z,45.64
2018-09-27T07:38:05.205Z,45.79
2018-09-27T07:40:32.922Z,46.14
2018-09-27T07:43:00.687Z,43.38
2018-09-27T07:45:28.390Z,44.21
2018-09-27T07:47:56.199Z,43.39
2018-09-27T07:50:23.985Z,43.75
2018-09-27T07:52:51.729Z,43.76
2018-09-27T07:55:19.486Z,44.17
2018-09-27T07:57:47.193Z,43.17
2018-09-27T08:00:14.959Z,42.82
2018-09-27T08:02:42.741Z,40.37
2018-09-27T08:05:10.601Z,40.49
2018-09-27T08:07:38.330Z,38.44
2018-09-27T08:10:06.251Z,39.22
2018-09-27T08:12:33.972Z,38.38
2018-09-27T08:15:01.722Z,36.13
2018-09-27T08:17:29.484Z,35.56
2018-09-27T08:19:57.274Z,36.40
2018-09-27T08:22:25.052Z,35.45
2018-09-27T08:24:52.907Z,34.56
2018-09-27T08:27:20.711Z,34.27
2018-09-27T08:29:48.442Z,33.94
2018-09-27T08:32:16.287Z,35.81
2018-09-27T08:34:44.181Z,33.83
2018-09-27T08:37:11.952Z,32.82
2018-09-27T08:39:39.697Z,32.84
2018-09-27T08:42:07.436Z,32.25
2018-09-27T08:44:35.235Z,31.62
2018-09-27T08:47:03.003Z,30.16
2018-09-27T08:49:30.807Z,27.81
2018-09-27T08:51:58.594Z,26.08
2018-09-27T08:54:26.314Z,27.46
2018-09-27T08:56:54.154Z,26.80
2018-09-27T08:59:21.860Z,26.97
2018-09-27T09:01:49.624Z,27.37
2018-09-27T09:04:17.387Z,26.45
2018-09-27T09:06:45.204Z,25.29
2018-09-27T09:09:13.541Z,25.14
2018-09-27T09:11:41.420Z,24.55
2018-09-27T09:14:10.051Z,26.52
2018-09-27T09:16:37.914Z,25.87
2018-09-27T09:19:05.956Z,25.61
2018-09-27T09:21:33.891Z,26.60
2018-09-27T09:24:01.643Z,26.72
2018-09-27T09:26:29.570Z,25.90
2018-09-27T09:28:57.699Z,25.12
2018-09-27T09:31:25.550Z,24.24
2018-09-27T09:33:53.500Z,24.17
2018-09-27T09:36:21.459Z,24.24
2018-09-27T09:38:49.231Z,24.74
2018-09-27T09:41:17.007Z,25.75
2018-09-27T09:43:44.867Z,25.40
2018-09-27T09:46:12.707Z,24.01
2018-09-27T09:48:40.538Z,22.14
2018-09-27T09:51:08.358Z,24.37
2018-09-27T09:53:36.161Z,24.87
2018-09-27T09:56:04.620Z,24.59
2018-09-27T09:58:32.439Z,23.72
2018-09-27T10:01:00.255Z,22.29
2018-09-27T10:03:28.071Z,21.99
2018-09-27T10:05:55.902Z,23.03
2018-09-27T10:08:23.707Z,22.96
2018-09-27T10:10:51.494Z,23.76
2018-09-27T10:13:19.248Z,23.71
2018-09-27T10:15:46.982Z,23.09
2018-09-27T10:18:14.854Z,24.35
2018-09-27T10:20:42.559Z,24.64
2018-09-27T10:23:10.521Z,23.02
2018-09-27T10:25:38.306Z,23.10
2018-09-27T10:28:06.047Z,21.14
2018-09-27T10:30:33.794Z,22.53
2018-09-27T10:33:01.655Z,22.80
2018-09-27T10:35:29.420Z,22.62
2018-09-27T10:37:57.171Z,21.63
2018-09-27T10:40:25.001Z,20.61
2018-09-27T10:42:52.788Z,21.89
2018-09-27T10:45:20.580Z,23.20
2018-09-27T10:47:48.395Z,24.14
2018-09-27T10:50:16.980Z,21.71
2018-09-27T10:52:44.758Z,20.98
2018-09-27T10:55:12.554Z,20.22
2018-09-27T10:57:40.230Z,21.30
2018-09-27T11:00:08.192Z,21.57
2018-09-27T11:02:36.007Z,21.15
2018-09-27T11:05:03.843Z,20.15
2018-09-27T11:07:33.879Z,18.70
2018-09-27T11:10:05.223Z,18.49
2018-09-27T11:12:36.240Z,18.50
2018-09-27T11:15:04.231Z,18.84
2018-09-27T11:17:33.995Z,18.40
2018-09-27T11:20:02.927Z,19.16
2018-09-27T11:25:03.443Z,19.37
2018-09-27T11:27:31.243Z,19.60
2018-09-27T11:30:04.510Z,17.50
2018-09-27T11:32:33.869Z,18.02
2018-09-27T11:35:01.639Z,18.71
2018-09-27T11:37:29.401Z,20.67
2018-09-27T11:39:57.225Z,19.77
2018-09-27T11:42:25.071Z,20.20
2018-09-27T11:44:52.780Z,21.20
2018-09-27T11:47:20.569Z,20.39
2018-09-27T11:49:48.381Z,18.97
2018-09-27T11:52:16.080Z,17.41
2018-09-27T11:54:43.813Z,18.40
2018-09-27T11:57:11.556Z,18.01
2018-09-27T11:59:39.351Z,18.30
2018-09-27T12:02:07.166Z,17.92
2018-09-27T12:04:34.927Z,18.16
2018-09-27T12:07:02.724Z,18.63
2018-09-27T12:09:30.675Z,18.84
2018-09-27T12:11:59.003Z,17.94
2018-09-27T12:14:26.839Z,18.65
2018-09-27T12:16:54.647Z,19.18
2018-09-27T12:19:22.368Z,18.82
2018-09-27T12:21:50.132Z,18.93
2018-09-27T12:24:17.959Z,18.45
2018-09-27T12:26:45.763Z,17.36
2018-09-27T12:29:14.044Z,18.40
2018-09-27T12:31:48.731Z,18.94
2018-09-27T12:34:16.531Z,18.83
2018-09-27T12:36:44.306Z,19.03
2018-09-27T12:39:12.624Z,19.42
2018-09-27T12:41:40.526Z,18.99
2018-09-27T12:44:08.574Z,19.49
2018-09-27T12:46:36.336Z,19.48
2018-09-27T12:49:04.063Z,20.06
2018-09-27T12:51:31.920Z,20.00
2018-09-27T12:53:59.663Z,19.43
2018-09-27T12:56:27.492Z,19.93
2018-09-27T12:58:55.348Z,18.86
2018-09-27T13:01:23.200Z,18.92
2018-09-27T13:03:50.975Z,19.34
2018-09-27T13:06:18.734Z,19.72
2018-09-27T13:08:46.603Z,20.09
2018-09-27T13:11:14.237Z,19.57
2018-09-27T13:13:42.063Z,19.82
2018-09-27T13:16:09.957Z,19.14
2018-09-27T13:18:37.707Z,18.86
2018-09-27T13:21:05.502Z,18.50
2018-09-27T13:23:33.386Z,17.52
2018-09-27T13:26:01.125Z,19.15
2018-09-27T13:28:28.980Z,18.68
2018-09-27T13:30:56.775Z,19.07
2018-09-27T13:33:24.471Z,19.12
2018-09-27T13:35:52.239Z,18.85
2018-09-27T13:38:20.120Z,18.98
2018-09-27T13:40:47.912Z,18.30
2018-09-27T13:43:15.727Z,18.47
2018-09-27T13:45:43.447Z,18.80
2018-09-27T13:48:11.223Z,18.46
2018-09-27T13:50:39.007Z,18.93
2018-09-27T13:53:06.779Z,19.09
2018-09-27T13:55:34.519Z,18.59
2018-09-27T13:58:02.198Z,18.50
2018-09-27T14:00:30.003Z,19.03
2018-09-27T14:02:57.769Z,18.28
2018-09-27T14:05:25.655Z,19.28
2018-09-27T14:07:53.498Z,18.48
2018-09-27T14:10:21.248Z,19.08
2018-09-27T14:12:48.999Z,19.69
2018-09-27T14:15:16.816Z,19.11
2018-09-27T14:17:44.613Z,20.08
2018-09-27T14:20:12.347Z,20.13
2018-09-27T14:22:40.164Z,20.77
2018-09-27T14:25:07.958Z,20.33
2018-09-27T14:27:35.771Z,20.77
2018-09-27T14:30:03.582Z,20.48
2018-09-27T14:32:31.323Z,21.26
2018-09-27T14:34:59.070Z,21.28
2018-09-27T14:37:26.841Z,20.17
2018-09-27T14:39:54.594Z,20.32
2018-09-27T14:42:22.339Z,19.11
2018-09-27T14:44:50.116Z,19.24
2018-09-27T14:47:17.914Z,21.44
2018-09-27T14:49:45.694Z,20.67
2018-09-27T14:52:13.471Z,21.56
2018-09-27T14:54:41.234Z,20.78
2018-09-27T14:57:09.054Z,21.54
2018-09-27T14:59:37.008Z,21.53
2018-09-27T15:02:07.954Z,21.71
2018-09-27T15:04:35.869Z,21.46
2018-09-27T15:07:03.780Z,20.63
2018-09-27T15:09:31.825Z,21.25
2018-09-27T15:11:59.676Z,21.09
2018-09-27T15:14:27.591Z,21.67
2018-09-27T15:16:55.420Z,21.43
2018-09-27T15:19:23.261Z,21.57
2018-09-27T15:21:51.136Z,21.68
2018-09-27T15:24:18.991Z,22.75
2018-09-27T15:26:46.859Z,23.33
2018-09-27T15:29:14.719Z,26.83
2018-09-27T15:31:42.536Z,26.58
2018-09-27T15:34:10.342Z,26.85
2018-09-27T15:36:38.251Z,27.39
2018-09-27T15:39:07.116Z,27.86
2018-09-27T15:41:34.953Z,28.17
2018-09-27T15:44:02.833Z,30.57
2018-09-27T15:46:30.683Z,28.34
2018-09-27T15:48:58.495Z,28.70
2018-09-27T15:51:26.589Z,29.42
2018-09-27T15:53:54.363Z,29.37
2018-09-27T15:56:22.193Z,30.74
2018-09-27T15:58:50.053Z,31.91
2018-09-27T16:01:17.864Z,32.63
2018-09-27T16:08:40.608Z,34.29
2018-09-27T16:11:08.530Z,34.81
2018-09-27T16:13:36.368Z,35.12
2018-09-27T16:16:04.259Z,35.41
2018-09-27T16:18:32.086Z,35.83
2018-09-27T16:20:59.900Z,36.11
2018-09-27T16:23:27.782Z,37.86
2018-09-27T16:25:55.632Z,37.04
2018-09-27T16:28:23.469Z,37.35
2018-09-27T16:30:51.333Z,38.24
2018-09-27T16:33:19.180Z,38.75
2018-09-27T16:35:47.066Z,38.73
2018-09-27T16:38:14.987Z,38.51
2018-09-27T16:40:42.833Z,38.73
2018-09-27T16:43:10.764Z,38.54
2018-09-27T16:45:38.972Z,38.68
2018-09-27T16:48:06.813Z,38.72
2018-09-27T16:50:34.788Z,39.16
2018-09-27T16:53:02.694Z,39.57
2018-09-27T16:55:30.529Z,39.43
2018-09-27T16:57:58.365Z,39.85
2018-09-27T17:00:26.227Z,40.40
2018-09-27T17:02:54.376Z,40.42
2018-09-27T17:05:22.193Z,40.62
2018-09-27T17:07:50.117Z,40.68
2018-09-27T17:10:18.015Z,40.58
2018-09-27T17:12:45.856Z,42.02
2018-09-27T17:15:13.832Z,41.30
2018-09-27T17:17:41.691Z,41.23
2018-09-27T17:20:09.548Z,41.37
2018-09-27T17:22:37.473Z,41.57
2018-09-27T17:25:05.552Z,42.33
2018-09-27T17:27:33.388Z,41.82
2018-09-27T17:30:01.267Z,41.75
2018-09-27T17:32:29.068Z,43.04
2018-09-27T17:34:56.867Z,41.56
2018-09-27T17:37:24.751Z,42.37
2018-09-27T17:39:52.603Z,41.87
2018-09-27T17:42:20.408Z,42.32
2018-09-27T17:44:48.262Z,42.20
2018-09-27T17:47:16.664Z,43.21
2018-09-27T17:49:44.592Z,41.83
2018-09-27T17:52:12.559Z,42.46
2018-09-27T17:54:40.373Z,42.58
2018-09-27T17:57:08.295Z,43.00
2018-09-27T17:59:36.193Z,41.21
2018-09-27T18:02:04.125Z,42.02
2018-09-27T18:04:32.111Z,41.85
2018-09-27T18:07:00.111Z,39.86
2018-09-27T18:09:27.953Z,39.64
2018-09-27T18:11:55.842Z,37.98
2018-09-27T18:14:23.854Z,38.96
2018-09-27T18:16:51.676Z,39.67
2018-09-27T18:19:19.530Z,38.60
2018-09-27T18:21:48.390Z,39.43
2018-09-27T18:24:16.837Z,39.47
2018-09-27T18:26:45.224Z,43.82
2018-09-27T18:29:13.623Z,41.22
2018-09-27T18:31:41.539Z,38.03
2018-09-27T18:34:09.339Z,37.73
2018-09-27T18:36:37.124Z,37.50
2018-09-27T18:39:07.894Z,38.27
2018-09-27T18:41:35.992Z,36.59
2018-09-27T18:44:04.128Z,36.15
2018-09-27T18:46:32.170Z,35.45
2018-09-27T18:48:59.972Z,34.55
2018-09-27T18:51:27.774Z,34.49
2018-09-27T18:53:55.542Z,34.38
2018-09-27T18:56:23.403Z,34.35
2018-09-27T18:58:51.249Z,34.94
2018-09-27T19:01:19.141Z,35.13
2018-09-27T19:03:46.963Z,34.51
2018-09-27T19:06:14.828Z,34.68
2018-09-27T19:08:42.622Z,34.18
2018-09-27T19:11:10.453Z,34.68
2018-09-27T19:13:38.697Z,34.33
2018-09-27T19:16:07.540Z,34.49
2018-09-27T19:18:35.438Z,34.21
2018-09-27T19:21:03.227Z,34.06
2018-09-27T19:23:30.965Z,34.70
2018-09-27T19:25:58.663Z,34.95
2018-09-27T19:28:26.631Z,34.32
2018-09-27T19:30:54.607Z,34.54
2018-09-27T19:33:22.661Z,34.69
2018-09-27T19:35:50.487Z,34.19
2018-09-27T19:38:18.327Z,34.22
2018-09-27T19:40:46.283Z,34.73
2018-09-27T19:43:14.132Z,35.09
2018-09-27T19:45:41.896Z,34.82
2018-09-27T19:48:09.675Z,34.53
2018-09-27T19:50:37.632Z,34.67
2018-09-27T19:55:38.739Z,35.25
2018-09-27T19:58:06.749Z,35.48
2018-09-27T20:00:34.561Z,35.12
2018-09-27T20:03:02.420Z,35.36
2018-09-27T20:05:30.204Z,35.65
2018-09-27T20:07:57.978Z,35.70
2018-09-27T20:10:25.817Z,35.91
2018-09-27T20:12:53.540Z,35.47
2018-09-27T20:15:21.303Z,35.18
2018-09-27T20:17:49.132Z,35.27
2018-09-27T20:20:16.896Z,35.47
2018-09-27T20:22:44.778Z,35.48
2018-09-27T20:25:12.600Z,35.53
2018-09-27T20:27:40.399Z,36.04
2018-09-27T20:30:08.174Z,36.21
2018-09-27T20:32:35.996Z,35.95
2018-09-27T20:35:03.815Z,36.53
2018-09-27T20:37:31.527Z,35.93
2018-09-27T20:39:59.320Z,36.22
2018-09-27T20:42:27.163Z,36.46
2018-09-27T20:44:54.875Z,36.62
2018-09-27T20:47:22.652Z,36.70
2018-09-27T20:49:50.383Z,36.52
2018-09-27T20:52:18.171Z,36.68
2018-09-27T20:54:46.115Z,36.55
2018-09-27T20:57:13.914Z,36.59
2018-09-27T20:59:41.677Z,36.30
2018-09-27T21:02:09.455Z,36.71
2018-09-27T21:04:37.235Z,36.79
2018-09-27T21:07:05.003Z,36.46
2018-09-27T21:09:32.802Z,36.92
2018-09-27T21:12:00.561Z,36.41
2018-09-27T21:14:28.360Z,36.33
2018-09-27T21:16:56.167Z,36.59
2018-09-27T21:19:23.893Z,36.31
2018-09-27T21:21:51.704Z,36.74
2018-09-27T21:24:19.566Z,36.76
2018-09-27T21:26:47.328Z,36.14
2018-09-27T21:29:15.140Z,35.85
2018-09-27T21:31:43.025Z,37.53
2018-09-27T21:34:10.876Z,37.52
2018-09-27T21:36:38.729Z,38.62
2018-09-27T21:39:07.138Z,39.84
2018-09-27T21:41:34.962Z,40.17
2018-09-27T21:44:02.810Z,40.05
2018-09-27T21:46:30.690Z,41.65
2018-09-27T21:48:58.594Z,41.68
2018-09-27T21:51:26.493Z,42.61
2018-09-27T21:53:54.387Z,42.11
2018-09-27T21:56:22.225Z,42.36
2018-09-27T21:58:50.095Z,42.28
2018-09-27T22:01:18.542Z,47.95
2018-09-27T22:03:46.448Z,46.73
2018-09-27T22:06:14.331Z,43.51
2018-09-27T22:08:42.431Z,45.03
2018-09-27T22:11:10.664Z,45.09
2018-09-27T22:13:38.488Z,44.99
2018-09-27T22:16:06.655Z,45.36
2018-09-27T22:18:34.547Z,45.69
2018-09-27T22:21:02.340Z,46.55
2018-09-27T22:23:30.208Z,44.26
2018-09-27T22:25:58.034Z,43.63
2018-09-27T22:28:25.836Z,42.93
2018-09-27T22:30:53.644Z,42.34
2018-09-27T22:33:21.395Z,42.13
2018-09-27T22:35:49.260Z,41.94
2018-09-27T22:38:17.064Z,41.69
2018-09-27T22:40:44.892Z,41.51
2018-09-27T22:43:12.688Z,44.46
2018-09-27T22:45:40.548Z,42.14
2018-09-27T22:48:08.305Z,42.65
2018-09-27T22:50:36.148Z,41.56
2018-09-27T22:53:03.922Z,40.97
2018-09-27T22:55:31.666Z,41.16
2018-09-27T22:57:59.470Z,40.67
2018-09-27T23:00:27.325Z,41.47
2018-09-27T23:02:55.243Z,41.08
2018-09-27T23:05:23.015Z,40.64
2018-09-27T23:07:50.984Z,40.29
2018-09-27T23:10:18.802Z,40.64
2018-09-27T23:12:46.521Z,40.81
2018-09-27T23:15:14.399Z,41.29
2018-09-27T23:17:42.201Z,41.45
2018-09-27T23:20:10.587Z,41.51
2018-09-27T23:22:38.439Z,42.06
2018-09-27T23:25:06.294Z,41.57
2018-09-27T23:27:34.000Z,41.48
2018-09-27T23:30:01.755Z,41.54
2018-09-27T23:32:29.492Z,40.84
2018-09-27T23:34:57.257Z,41.10
2018-09-27T23:37:25.070Z,40.86
2018-09-27T23:39:52.854Z,40.96
2018-09-27T23:42:20.586Z,40.04
2018-09-27T23:44:48.431Z,40.32
2018-09-27T23:47:16.228Z,41.58
2018-09-27T23:49:43.927Z,42.00
2018-09-27T23:52:11.727Z,40.72
2018-09-27T23:54:39.479Z,41.07
2018-09-27T23:57:07.209Z,41.25
2018-09-27T23:59:34.998Z,40.62
